createdAt,value
2022-11-03T00:01:47.293Z,0.73
2022-11-03T00:04:16.786Z,0.82
2022-11-03T00:09:12.771Z,0.95
2022-11-03T00:11:42.267Z,0.75
2022-11-03T00:14:10.152Z,0.88
2022-11-03T00:16:38.613Z,0.70
2022-11-03T00:19:06.274Z,1.17
2022-11-03T00:21:33.319Z,0.98
2022-11-03T00:24:02.529Z,0.93
2022-11-03T00:29:00.673Z,1.05
2022-11-03T00:31:29.285Z,0.73
2022-11-03T00:33:56.852Z,0.83
2022-11-03T00:36:28.675Z,1.00
2022-11-03T00:38:55.985Z,0.88
2022-11-03T00:41:24.756Z,1.05
2022-11-03T00:43:51.914Z,1.15
2022-11-03T00:46:19.890Z,0.90
2022-11-03T00:48:46.537Z,0.93
2022-11-03T00:51:18.451Z,1.00
2022-11-03T00:53:52.804Z,0.70
2022-11-03T00:56:24.730Z,1.02
2022-11-03T00:58:52.525Z,0.98
2022-11-03T01:01:24.588Z,1.00
2022-11-03T01:04:12.370Z,1.00
2022-11-03T01:06:50.714Z,0.98
2022-11-03T01:09:22.244Z,0.87
2022-11-03T01:11:58.235Z,0.90
2022-11-03T01:14:27.727Z,0.98
2022-11-03T01:16:54.549Z,0.70
2022-11-03T01:19:21.486Z,0.90
2022-11-03T01:21:48.140Z,1.00
2022-11-03T01:24:15.134Z,0.88
2022-11-03T01:26:41.908Z,1.13
2022-11-03T01:29:08.658Z,1.05
2022-11-03T01:31:35.528Z,1.13
2022-11-03T01:34:02.308Z,0.82
2022-11-03T01:36:29.223Z,0.90
2022-11-03T01:38:56.581Z,0.90
2022-11-03T01:41:26.646Z,0.95
2022-11-03T01:44:08.481Z,0.80
2022-11-03T01:46:52.317Z,0.80
2022-11-03T01:49:44.565Z,1.02
2022-11-03T01:52:23.963Z,1.10
2022-11-03T01:54:59.038Z,0.80
2022-11-03T01:57:31.149Z,0.68
2022-11-03T01:59:59.105Z,0.80
2022-11-03T02:02:27.332Z,0.65
2022-11-03T02:04:55.989Z,1.00
2022-11-03T02:07:34.031Z,0.70
2022-11-03T02:10:01.419Z,0.85
2022-11-03T02:12:28.289Z,1.23
2022-11-03T02:15:03.271Z,1.20
2022-11-03T02:17:31.440Z,1.02
2022-11-03T02:20:02.473Z,0.70
2022-11-03T02:22:28.988Z,0.90
2022-11-03T02:25:07.418Z,0.73
2022-11-03T02:27:34.023Z,0.70
2022-11-03T02:30:01.015Z,0.80
2022-11-03T02:32:46.282Z,0.77
2022-11-03T02:35:16.846Z,0.68
2022-11-03T02:37:48.095Z,1.00
2022-11-03T02:40:32.268Z,0.98
2022-11-03T02:43:00.752Z,0.90
2022-11-03T02:45:28.943Z,0.67
2022-11-03T02:47:59.376Z,0.70
2022-11-03T02:50:31.078Z,0.90
2022-11-03T02:52:58.080Z,0.70
2022-11-03T02:55:40.399Z,0.90
2022-11-03T02:58:15.895Z,0.73
2022-11-03T03:01:02.360Z,0.70
2022-11-03T03:03:39.602Z,0.82
2022-11-03T03:06:11.237Z,0.85
2022-11-03T03:08:44.489Z,1.00
2022-11-03T03:11:12.969Z,0.70
2022-11-03T03:13:42.764Z,0.80
2022-11-03T03:16:16.997Z,0.70
2022-11-03T03:18:55.480Z,0.77
2022-11-03T03:21:26.201Z,0.65
2022-11-03T03:24:01.234Z,0.70
2022-11-03T03:26:39.825Z,0.70
2022-11-03T03:29:12.240Z,0.80
2022-11-03T03:31:43.249Z,0.80
2022-11-03T03:37:00.982Z,1.10
2022-11-03T03:39:32.296Z,0.90
2022-11-03T03:42:01.734Z,0.80
2022-11-03T03:44:29.862Z,0.90
2022-11-03T03:47:07.138Z,0.82
2022-11-03T03:49:33.692Z,0.80
2022-11-03T03:52:01.002Z,0.70
2022-11-03T03:54:27.812Z,0.80
2022-11-03T03:57:02.472Z,1.00
2022-11-03T03:59:29.582Z,0.80
2022-11-03T04:01:56.576Z,1.20
2022-11-03T04:04:23.931Z,0.95
2022-11-03T04:07:10.487Z,1.00
2022-11-03T04:09:37.393Z,0.70
2022-11-03T04:12:22.631Z,1.13
2022-11-03T04:15:07.527Z,1.15
2022-11-03T04:17:52.977Z,0.80
2022-11-03T04:20:38.605Z,1.10
2022-11-03T04:23:05.324Z,0.88
2022-11-03T04:25:34.974Z,0.77
2022-11-03T04:28:02.319Z,1.00
2022-11-03T04:30:29.086Z,1.00
2022-11-03T04:32:55.879Z,0.75
2022-11-03T04:35:24.836Z,0.90
2022-11-03T04:37:57.291Z,1.10
2022-11-03T04:40:24.698Z,0.80
2022-11-03T04:42:51.684Z,0.80
2022-11-03T04:45:26.390Z,1.00
2022-11-03T04:47:54.096Z,0.90
2022-11-03T04:50:23.766Z,0.80
2022-11-03T04:52:58.714Z,0.80
2022-11-03T04:55:26.695Z,0.80
2022-11-03T04:58:07.263Z,0.80
2022-11-03T05:00:33.789Z,0.80
2022-11-03T05:03:00.612Z,0.85
2022-11-03T05:05:27.361Z,0.85
2022-11-03T05:07:56.828Z,0.90
2022-11-03T05:12:54.187Z,0.70
2022-11-03T05:15:37.829Z,0.98
2022-11-03T05:18:21.885Z,1.35
2022-11-03T05:21:02.717Z,0.80
2022-11-03T05:23:37.369Z,0.88
2022-11-03T05:26:05.520Z,1.00
2022-11-03T05:28:36.053Z,1.10
2022-11-03T05:31:16.631Z,0.85
2022-11-03T05:33:45.046Z,0.80
2022-11-03T05:36:16.581Z,1.10
2022-11-03T05:38:43.187Z,1.23
2022-11-03T05:41:29.050Z,1.10
2022-11-03T05:44:15.871Z,0.80
2022-11-03T05:46:42.442Z,0.90
2022-11-03T05:49:10.647Z,0.80
2022-11-03T05:51:43.475Z,0.85
2022-11-03T05:54:20.611Z,1.23
2022-11-03T05:56:47.398Z,0.80
2022-11-03T05:59:17.705Z,0.93
2022-11-03T06:01:44.451Z,0.77
2022-11-03T06:04:30.170Z,0.85
2022-11-03T06:07:03.541Z,0.73
2022-11-03T06:09:33.660Z,0.95
2022-11-03T06:12:05.458Z,0.70
2022-11-03T06:14:32.513Z,1.05
2022-11-03T06:17:07.562Z,0.88
2022-11-03T06:19:44.652Z,0.80
2022-11-03T06:22:18.931Z,1.05
2022-11-03T06:24:48.477Z,1.00
2022-11-03T06:27:23.896Z,0.93
2022-11-03T06:29:53.355Z,1.10
2022-11-03T06:32:20.042Z,0.90
2022-11-03T06:34:54.081Z,0.70
2022-11-03T06:37:24.770Z,0.98
2022-11-03T06:39:57.924Z,1.00
2022-11-03T06:42:31.621Z,0.80
2022-11-03T06:44:58.620Z,0.80
2022-11-03T06:47:27.826Z,1.00
2022-11-03T06:49:59.543Z,0.77
2022-11-03T06:52:26.152Z,1.25
2022-11-03T06:55:12.089Z,0.70
2022-11-03T06:57:44.360Z,0.90
2022-11-03T07:00:41.164Z,1.00
2022-11-03T07:03:17.809Z,1.00
2022-11-03T07:05:47.679Z,0.60
2022-11-03T07:08:20.756Z,0.80
2022-11-03T07:10:48.930Z,0.90
2022-11-03T07:13:24.940Z,0.93
2022-11-03T07:15:52.149Z,0.70
2022-11-03T07:18:33.948Z,0.70
2022-11-03T07:21:05.960Z,0.85
2022-11-03T07:23:32.456Z,0.80
2022-11-03T07:26:02.180Z,0.57
2022-11-03T07:28:37.468Z,0.90
2022-11-03T07:31:19.249Z,0.77
2022-11-03T07:33:46.406Z,0.80
2022-11-03T07:36:21.476Z,0.57
2022-11-03T07:38:51.173Z,0.95
2022-11-03T07:41:26.907Z,0.80
2022-11-03T07:43:59.435Z,1.00
2022-11-03T07:46:27.116Z,1.17
2022-11-03T07:49:03.390Z,0.77
2022-11-03T07:51:41.268Z,0.82
2022-11-03T07:54:16.775Z,0.95
2022-11-03T07:56:47.743Z,0.80
2022-11-03T07:59:19.181Z,0.90
2022-11-03T08:01:53.213Z,0.70
2022-11-03T08:04:22.739Z,1.02
2022-11-03T08:06:52.191Z,0.80
2022-11-03T08:11:46.276Z,1.08
2022-11-03T08:14:13.804Z,0.77
2022-11-03T08:16:40.400Z,0.85
2022-11-03T08:19:07.246Z,0.90
2022-11-03T08:21:34.241Z,0.95
2022-11-03T08:24:01.243Z,0.80
2022-11-03T08:26:28.663Z,0.80
2022-11-03T08:28:55.434Z,0.70
2022-11-03T08:31:24.736Z,0.88
2022-11-03T08:36:20.858Z,0.70
2022-11-03T08:38:47.632Z,0.85
2022-11-03T08:41:14.306Z,0.70
2022-11-03T08:43:41.060Z,0.60
2022-11-03T08:46:15.857Z,0.80
2022-11-03T08:48:44.574Z,0.88
2022-11-03T08:51:13.632Z,1.17
2022-11-03T08:53:42.669Z,0.90
2022-11-03T08:56:12.727Z,0.95
2022-11-03T08:58:41.073Z,0.88
2022-11-03T09:01:08.082Z,0.73
2022-11-03T09:03:34.968Z,0.77
2022-11-03T09:06:01.691Z,0.88
2022-11-03T09:11:15.033Z,0.90
2022-11-03T09:13:41.840Z,1.15
2022-11-03T09:16:12.020Z,1.25
2022-11-03T09:18:38.692Z,0.65
2022-11-03T09:21:06.218Z,1.00
2022-11-03T09:23:35.774Z,1.08
2022-11-03T09:26:02.333Z,1.00
2022-11-03T09:28:28.910Z,0.90
2022-11-03T09:30:55.495Z,0.77
2022-11-03T09:33:22.027Z,1.02
2022-11-03T09:35:48.529Z,0.75
2022-11-03T09:38:15.290Z,0.80
2022-11-03T09:40:45.112Z,1.00
2022-11-03T09:43:12.129Z,1.17
2022-11-03T09:45:39.576Z,1.15
2022-11-03T09:48:10.809Z,0.90
2022-11-03T09:50:38.055Z,0.90
2022-11-03T09:53:05.331Z,1.20
2022-11-03T09:55:33.611Z,1.50
2022-11-03T09:58:12.739Z,0.90
2022-11-03T10:00:39.685Z,1.65
2022-11-03T10:03:06.907Z,1.48
2022-11-03T10:05:34.025Z,1.52
2022-11-03T10:08:06.823Z,1.50
2022-11-03T10:10:35.441Z,1.40
2022-11-03T10:13:02.395Z,1.60
2022-11-03T10:15:29.445Z,1.45
2022-11-03T10:17:56.803Z,1.40
2022-11-03T10:20:23.899Z,1.65
2022-11-03T10:22:53.063Z,1.58
2022-11-03T10:25:36.858Z,1.50
2022-11-03T10:28:26.947Z,1.35
2022-11-03T10:31:10.635Z,1.70
2022-11-03T10:33:40.771Z,1.20
2022-11-03T10:36:24.523Z,1.30
2022-11-03T10:38:51.629Z,1.33
2022-11-03T10:41:18.116Z,1.40
2022-11-03T10:44:00.605Z,1.23
2022-11-03T10:49:19.543Z,1.10
2022-11-03T10:51:52.324Z,1.25
2022-11-03T10:54:22.229Z,1.25
2022-11-03T10:56:52.737Z,1.25
2022-11-03T10:59:24.418Z,1.00
2022-11-03T11:01:51.530Z,1.00
2022-11-03T11:04:20.031Z,1.30
2022-11-03T11:06:47.401Z,1.20
2022-11-03T11:09:20.866Z,1.27
2022-11-03T11:12:00.990Z,1.00
2022-11-03T11:14:28.330Z,1.17
2022-11-03T11:16:57.160Z,1.38
2022-11-03T11:19:25.594Z,1.30
2022-11-03T11:21:55.216Z,1.40
2022-11-03T11:24:43.439Z,1.50
2022-11-03T11:27:32.382Z,1.10
2022-11-03T11:29:59.925Z,1.20
2022-11-03T11:32:41.695Z,1.17
2022-11-03T11:35:09.947Z,1.15
2022-11-03T11:37:38.353Z,1.50
2022-11-03T11:40:35.035Z,1.27
2022-11-03T11:43:01.549Z,1.00
2022-11-03T11:46:05.695Z,0.90
2022-11-03T11:48:33.061Z,1.05
2022-11-03T11:51:01.389Z,1.10
2022-11-03T11:53:34.044Z,0.93
2022-11-03T11:56:02.162Z,1.10
2022-11-03T11:58:45.252Z,1.02
2022-11-03T12:01:31.200Z,1.00
2022-11-03T12:04:01.776Z,1.10
2022-11-03T12:06:37.377Z,0.95
2022-11-03T12:09:28.624Z,0.88
2022-11-03T12:12:00.524Z,0.90
2022-11-03T12:14:30.612Z,1.15
2022-11-03T12:16:59.125Z,1.20
2022-11-03T12:19:33.359Z,1.17
2022-11-03T12:22:00.952Z,0.85
2022-11-03T12:24:36.427Z,1.17
2022-11-03T12:27:17.480Z,0.77
2022-11-03T12:29:44.111Z,1.00
2022-11-03T12:32:25.661Z,1.13
2022-11-03T12:34:57.691Z,1.20
2022-11-03T12:37:24.501Z,1.35
2022-11-03T12:39:51.305Z,1.20
2022-11-03T12:42:20.042Z,1.05
2022-11-03T12:44:46.951Z,0.90
2022-11-03T12:47:13.643Z,1.00
2022-11-03T12:49:40.263Z,1.00
2022-11-03T12:52:08.609Z,0.82
2022-11-03T12:54:35.619Z,0.80
2022-11-03T12:57:02.403Z,0.98
2022-11-03T12:59:29.304Z,0.85
2022-11-03T13:01:56.209Z,0.90
2022-11-03T13:04:23.084Z,1.05
2022-11-03T13:06:49.998Z,0.95
2022-11-03T13:09:16.546Z,1.13
2022-11-03T13:12:01.559Z,1.20
2022-11-03T13:14:28.271Z,1.20
2022-11-03T13:16:54.864Z,1.10
2022-11-03T13:19:21.397Z,0.90
2022-11-03T13:21:48.238Z,0.90
2022-11-03T13:24:15.070Z,0.90
2022-11-03T13:26:41.866Z,0.73
2022-11-03T13:29:08.662Z,1.10
2022-11-03T13:31:35.770Z,0.95
2022-11-03T13:34:02.611Z,0.90
2022-11-03T13:36:29.314Z,0.95
2022-11-03T13:38:55.928Z,1.10
2022-11-03T13:41:22.555Z,1.00
2022-11-03T13:43:49.160Z,0.82
2022-11-03T13:46:15.845Z,0.70
2022-11-03T13:51:29.156Z,1.10
2022-11-03T13:59:29.577Z,1.00
2022-11-03T14:04:44.273Z,1.38
2022-11-03T14:07:11.548Z,0.80
2022-11-03T14:09:38.516Z,1.00
2022-11-03T14:12:24.297Z,0.90
2022-11-03T14:14:51.117Z,0.82
2022-11-03T14:17:20.653Z,1.05
2022-11-03T14:19:52.014Z,0.88
2022-11-03T14:22:23.423Z,1.10
2022-11-03T14:24:51.277Z,0.80
2022-11-03T14:27:19.980Z,1.02
2022-11-03T14:29:50.203Z,0.82
2022-11-03T14:32:18.226Z,1.00
2022-11-03T14:34:45.340Z,0.73
2022-11-03T14:37:13.017Z,1.08
2022-11-03T14:39:40.075Z,0.75
2022-11-03T14:42:15.000Z,1.00
2022-11-03T14:44:42.896Z,0.90
2022-11-03T14:47:11.729Z,1.00
2022-11-03T14:49:38.447Z,0.90
2022-11-03T14:52:10.109Z,0.85
2022-11-03T14:54:36.830Z,0.90
2022-11-03T14:57:04.908Z,0.90
2022-11-03T14:59:32.562Z,0.80
2022-11-03T15:02:00.159Z,0.98
2022-11-03T15:04:30.797Z,1.00
2022-11-03T15:06:57.347Z,1.00
2022-11-03T15:09:24.146Z,0.77
2022-11-03T15:11:50.788Z,0.88
2022-11-03T15:14:17.529Z,1.00
2022-11-03T15:16:46.157Z,1.00
2022-11-03T15:19:13.038Z,0.90
2022-11-03T15:21:39.753Z,0.90
2022-11-03T15:26:53.527Z,0.85
2022-11-03T15:29:20.219Z,0.70
2022-11-03T15:31:48.460Z,1.38
2022-11-03T15:34:15.924Z,0.93
2022-11-03T15:36:42.734Z,1.08
2022-11-03T15:39:09.861Z,0.73
2022-11-03T15:41:36.776Z,0.82
2022-11-03T15:44:03.682Z,0.98
2022-11-03T15:46:30.404Z,0.80
2022-11-03T15:48:57.742Z,0.93
2022-11-03T15:51:25.024Z,0.80
2022-11-03T15:53:56.904Z,1.02
2022-11-03T15:56:25.903Z,0.82
2022-11-03T15:58:52.722Z,0.80
2022-11-03T16:01:19.683Z,0.90
2022-11-03T16:03:46.556Z,1.00
2022-11-03T16:06:13.099Z,0.80
2022-11-03T16:08:39.700Z,1.10
2022-11-03T16:11:06.364Z,1.00
2022-11-03T16:13:32.962Z,1.00
2022-11-03T16:15:59.751Z,0.95
2022-11-03T16:18:26.480Z,1.02
2022-11-03T16:20:53.109Z,0.80
2022-11-03T16:23:19.633Z,1.10
2022-11-03T16:25:46.335Z,0.95
2022-11-03T16:28:12.867Z,0.80
2022-11-03T16:30:39.474Z,0.77
2022-11-03T16:33:06.128Z,0.70
2022-11-03T16:35:33.016Z,1.00
2022-11-03T16:37:59.641Z,0.70
2022-11-03T16:40:26.883Z,0.77
2022-11-03T16:42:53.600Z,0.70
2022-11-03T16:45:22.731Z,1.00
2022-11-03T16:47:50.670Z,1.17
2022-11-03T16:50:18.590Z,0.80
2022-11-03T16:52:49.386Z,0.80
2022-11-03T16:55:17.276Z,0.70
2022-11-03T16:57:44.395Z,0.85
2022-11-03T17:00:13.984Z,0.85
2022-11-03T17:02:41.173Z,1.00
2022-11-03T17:05:09.016Z,0.80
2022-11-03T17:07:35.906Z,1.00
2022-11-03T17:10:06.362Z,1.13
2022-11-03T17:12:32.934Z,1.30
2022-11-03T17:14:59.620Z,1.23
2022-11-03T17:17:28.633Z,2.03
2022-11-03T17:19:55.589Z,1.80
2022-11-03T17:22:22.479Z,1.63
2022-11-03T17:24:50.122Z,1.50
2022-11-03T17:27:20.754Z,1.60
2022-11-03T17:29:51.743Z,1.23
2022-11-03T17:32:31.602Z,1.25
2022-11-03T17:34:58.919Z,1.40
2022-11-03T17:37:26.384Z,1.30
2022-11-03T17:39:55.397Z,1.42
2022-11-03T17:42:25.035Z,1.38
2022-11-03T17:44:57.868Z,1.33
2022-11-03T17:47:24.903Z,1.40
2022-11-03T17:49:51.581Z,1.25
2022-11-03T17:52:25.053Z,1.60
2022-11-03T17:54:59.527Z,1.40
2022-11-03T17:57:27.101Z,1.30
2022-11-03T17:59:55.987Z,1.45
2022-11-03T18:02:25.602Z,1.15
2022-11-03T18:05:15.563Z,1.17
2022-11-03T18:07:45.173Z,1.20
2022-11-03T18:10:11.795Z,1.10
2022-11-03T18:13:01.467Z,1.25
2022-11-03T18:15:30.123Z,0.88
2022-11-03T18:17:57.215Z,1.05
2022-11-03T18:20:27.491Z,1.00
2022-11-03T18:23:00.278Z,0.90
2022-11-03T18:25:27.015Z,1.08
2022-11-03T18:27:53.586Z,1.08
2022-11-03T18:30:20.207Z,1.05
2022-11-03T18:32:46.904Z,1.10
2022-11-03T18:35:18.813Z,1.00
2022-11-03T18:37:45.460Z,0.88
2022-11-03T18:40:13.805Z,1.08
2022-11-03T18:42:41.061Z,1.13
2022-11-03T18:45:16.924Z,1.08
2022-11-03T18:47:43.996Z,1.00
2022-11-03T18:50:15.700Z,1.10
2022-11-03T18:52:45.118Z,1.10
2022-11-03T18:57:40.010Z,0.80
2022-11-03T19:00:27.136Z,0.73
2022-11-03T19:02:53.959Z,1.00
2022-11-03T19:05:20.813Z,1.00
2022-11-03T19:07:50.007Z,0.90
2022-11-03T19:10:22.319Z,1.00
2022-11-03T19:12:49.132Z,1.00
2022-11-03T19:15:24.804Z,0.88
2022-11-03T19:17:55.517Z,1.00
2022-11-03T19:20:23.684Z,0.80
2022-11-03T19:22:50.321Z,0.80
2022-11-03T19:25:18.790Z,0.80
2022-11-03T19:27:48.135Z,0.90
2022-11-03T19:32:48.921Z,0.90
2022-11-03T19:35:18.469Z,0.80
2022-11-03T19:37:46.440Z,0.70
2022-11-03T19:40:15.946Z,0.70
2022-11-03T19:42:44.178Z,0.90
2022-11-03T19:45:14.819Z,0.80
2022-11-03T19:50:43.488Z,0.80
2022-11-03T19:53:19.798Z,0.90
2022-11-03T19:55:46.741Z,0.80
2022-11-03T19:58:16.461Z,0.80
2022-11-03T20:00:43.869Z,0.70
2022-11-03T20:03:11.760Z,0.80
2022-11-03T20:05:39.167Z,0.93
2022-11-03T20:08:08.798Z,0.70
2022-11-03T20:10:36.203Z,0.93
2022-11-03T20:13:04.184Z,0.90
2022-11-03T20:15:30.867Z,1.05
2022-11-03T20:17:57.388Z,0.60
2022-11-03T20:20:28.106Z,0.60
2022-11-03T20:23:00.282Z,0.70
2022-11-03T20:25:29.324Z,1.00
2022-11-03T20:27:57.828Z,0.82
2022-11-03T20:30:26.452Z,0.70
2022-11-03T20:32:53.467Z,1.00
2022-11-03T20:35:25.610Z,0.73
2022-11-03T20:37:59.298Z,0.95
2022-11-03T20:40:30.013Z,0.60
2022-11-03T20:42:59.950Z,0.73
2022-11-03T20:45:29.474Z,0.80
2022-11-03T20:47:56.628Z,0.88
2022-11-03T20:50:25.179Z,0.93
2022-11-03T20:52:53.132Z,0.90
2022-11-03T20:55:26.092Z,0.82
2022-11-03T20:57:54.487Z,0.65
2022-11-03T21:00:27.068Z,0.70
2022-11-03T21:02:55.759Z,0.80
2022-11-03T21:05:25.312Z,1.13
2022-11-03T21:07:52.829Z,0.68
2022-11-03T21:10:21.102Z,0.70
2022-11-03T21:12:48.193Z,0.98
2022-11-03T21:15:44.500Z,0.77
2022-11-03T21:18:37.500Z,0.98
2022-11-03T21:21:05.659Z,0.77
2022-11-03T21:23:34.449Z,0.45
2022-11-03T21:26:00.947Z,0.65
2022-11-03T21:28:27.543Z,0.80
2022-11-03T21:30:55.685Z,0.88
2022-11-03T21:33:23.211Z,0.63
2022-11-03T21:35:50.377Z,0.55
2022-11-03T21:38:18.339Z,0.93
2022-11-03T21:40:55.261Z,0.80
2022-11-03T21:43:41.554Z,0.70
2022-11-03T21:46:10.978Z,0.80
2022-11-03T21:48:57.530Z,0.85
2022-11-03T21:51:24.469Z,0.90
2022-11-03T21:53:54.037Z,1.10
2022-11-03T21:56:20.631Z,0.63
2022-11-03T21:58:47.311Z,0.80
2022-11-03T22:01:14.033Z,0.98
2022-11-03T22:03:40.848Z,0.60
2022-11-03T22:06:09.729Z,0.82
2022-11-03T22:08:37.882Z,0.85
2022-11-03T22:11:22.022Z,0.73
2022-11-03T22:13:55.509Z,0.50
2022-11-03T22:16:38.348Z,0.50
2022-11-03T22:19:23.850Z,0.73
2022-11-03T22:22:09.624Z,0.47
2022-11-03T22:24:55.383Z,0.63
2022-11-03T22:27:22.222Z,0.60
2022-11-03T22:30:07.394Z,0.63
2022-11-03T22:32:34.624Z,0.60
2022-11-03T22:35:19.762Z,0.60
2022-11-03T22:37:46.597Z,0.70
2022-11-03T22:40:34.742Z,0.60
2022-11-03T22:43:19.869Z,0.50
2022-11-03T22:45:56.533Z,0.73
2022-11-03T22:48:27.001Z,0.70
2022-11-03T22:51:03.758Z,0.60
2022-11-03T22:53:50.792Z,0.60
2022-11-03T22:56:18.275Z,0.55
2022-11-03T22:58:48.140Z,0.60
2022-11-03T23:01:17.435Z,0.73
2022-11-03T23:06:14.881Z,0.50
2022-11-03T23:08:43.100Z,0.50
2022-11-03T23:11:18.947Z,0.40
2022-11-03T23:13:47.468Z,0.63
2022-11-03T23:16:17.506Z,0.50
2022-11-03T23:19:03.085Z,0.63
2022-11-03T23:21:30.476Z,0.70
2022-11-03T23:24:16.168Z,0.80
2022-11-03T23:26:43.746Z,0.68
2022-11-03T23:29:15.779Z,0.60
2022-11-03T23:31:44.436Z,0.60
2022-11-03T23:34:13.100Z,0.40
2022-11-03T23:36:40.138Z,0.80
2022-11-03T23:39:07.492Z,0.60
2022-11-03T23:41:34.475Z,0.50
2022-11-03T23:44:04.243Z,0.80
2022-11-03T23:46:49.367Z,0.77
2022-11-03T23:49:16.257Z,0.47
2022-11-03T23:51:43.047Z,0.75
2022-11-03T23:54:11.737Z,0.55
2022-11-03T23:57:01.697Z,0.50
2022-11-03T23:59:30.526Z,0.60
